Time;durP1;ratioP1;P1;durP2;ratioP2;P2;SDS_P1;SDS_P2;PMS_P1;PMS_P2;Temp;Humidity;BMP_temperature;BMP_pressure;BME280_temperature;BME280_humidity;BME280_pressure;Samples;Min_cycle;Max_cycle;Signal;HPM_P1;HPM_P2
2023/09/15 00:01:35;;;;;;;16.08;14.40;;;;;;;15.20;82.64;101857.75;5046493;28;20025;-66
2023/09/15 00:04:06;;;;;;;17.52;14.32;;;;;;;15.13;82.90;101855.59;5061846;28;20067;-67
2023/09/15 00:06:32;;;;;;;16.40;14.68;;;;;;;15.15;82.70;101861.72;5036410;28;20024;-66
2023/09/15 00:08:58;;;;;;;17.60;13.95;;;;;;;15.02;82.62;101842.91;5064654;28;20032;-66
2023/09/15 00:11:23;;;;;;;16.60;14.90;;;;;;;15.11;82.79;101847.66;5049820;28;20046;-66
2023/09/15 00:13:49;;;;;;;16.70;15.02;;;;;;;15.02;82.95;101845.56;5060775;28;20024;-67
2023/09/15 00:16:14;;;;;;;17.15;14.82;;;;;;;14.94;83.26;101840.75;5059199;28;20028;-66
2023/09/15 00:18:44;;;;;;;16.98;15.32;;;;;;;14.98;83.36;101844.06;5060462;28;20021;-67
2023/09/15 00:21:11;;;;;;;;;;;;;;;15.26;81.76;101847.59;5061972;28;20024;-66
2023/09/15 00:23:37;;;;;;;17.30;15.40;;;;;;;14.91;83.43;101837.38;5059651;28;19916;-66
2023/09/15 00:26:03;;;;;;;16.77;15.02;;;;;;;14.94;83.52;101830.03;5062090;28;20082;-66
2023/09/15 00:28:29;;;;;;;17.05;15.25;;;;;;;14.83;nan;101831.69;5061751;28;20040;-66
2023/09/15 00:30:55;;;;;;;17.00;15.27;;;;;;;14.86;83.83;101837.69;5058218;28;20037;-67
2023/09/15 00:33:21;;;;;;;17.13;15.00;;;;;;;14.88;84.01;101827.75;5062096;28;20036;-67
2023/09/15 00:35:47;;;;;;;17.48;15.68;;;;;;;14.76;83.85;101833.88;5065823;28;20032;-67
2023/09/15 00:38:13;;;;;;;16.88;15.10;;;;;;;14.77;84.08;101841.84;5040904;28;20028;-66
2023/09/15 00:40:39;;;;;;;17.08;15.27;;;;;;;14.76;84.14;101832.09;5062479;28;20066;-67
2023/09/15 00:43:04;;;;;;;16.80;15.20;;;;;;;14.68;84.34;101829.03;5044027;28;20024;-66
2023/09/15 00:45:29;;;;;;;16.38;14.77;;;;;;;14.66;84.57;101828.28;5071157;28;20053;-67
2023/09/15 00:47:58;;;;;;;17.67;15.95;;;;;;;14.60;85.01;101835.84;5057588;28;20075;-66
2023/09/15 00:50:34;;;;;;;17.05;15.32;;;;;;;14.59;85.14;101831.44;5060483;28;20025;-66
2023/09/15 00:53:10;;;;;;;16.73;15.10;;;;;;;14.54;84.99;101819.22;5065609;28;20533;-66
2023/09/15 00:55:37;;;;;;;16.42;14.82;;;;;;;14.60;84.69;101833.16;5066807;28;20501;-66
2023/09/15 00:58:08;;;;;;;17.02;15.40;;;;;;;14.55;84.52;101825.41;5061229;28;20021;-66
2023/09/15 01:00:33;;;;;;;16.75;15.10;;;;;;;14.51;85.05;101823.88;5068298;28;20082;-66
2023/09/15 01:02:59;;;;;;;18.50;16.58;;;;;;;14.46;85.17;101824.16;5066306;28;20025;-66
2023/09/15 01:05:25;;;;;;;18.60;16.73;;;;;;;14.34;85.46;101808.88;5067792;28;20050;-66
2023/09/15 01:07:52;;;;;;;18.48;16.27;;;;;;;14.45;85.05;101824.28;5064130;28;20422;-66
2023/09/15 01:10:19;;;;;;;17.98;16.08;;;;;;;14.27;85.57;101811.09;5049017;28;20028;-66
2023/09/15 01:12:47;;;;;;;17.42;15.65;;;;;;;14.26;85.78;101819.19;5069268;28;20024;-67
2023/09/15 01:15:13;;;;;;;17.65;15.90;;;;;;;14.32;85.42;101814.34;5064049;28;20583;-66
2023/09/15 01:17:47;;;;;;;18.17;15.93;;;;;;;14.36;85.78;101814.16;5051511;28;20103;-66
2023/09/15 01:20:25;;;;;;;18.45;16.65;;;;;;;14.26;86.05;101808.50;5061821;28;20024;-66
2023/09/15 01:23:15;;;;;;;18.13;16.30;;;;;;;14.35;85.99;101813.25;5045129;28;20705;-66
2023/09/15 01:26:12;;;;;;;17.98;16.33;;;;;;;14.31;85.94;101801.91;5047502;28;20444;-66
2023/09/15 01:29:05;;;;;;;20.33;16.63;;;;;;;14.29;86.03;101811.88;5061876;28;20036;-65
2023/09/15 01:31:32;;;;;;;18.17;16.58;;;;;;;14.20;86.39;101809.75;5072868;28;20032;-66
2023/09/15 01:33:57;;;;;;;19.48;17.58;;;;;;;14.15;86.45;101805.63;5049303;28;20028;-65
2023/09/15 01:36:23;;;;;;;17.77;15.98;;;;;;;14.19;86.23;101796.47;5065161;28;20020;-66
2023/09/15 01:38:48;;;;;;;18.73;16.73;;;;;;;14.18;86.02;101795.63;5065300;28;20036;-66
2023/09/15 01:41:14;;;;;;;17.83;16.02;;;;;;;14.14;86.27;101796.75;5068164;28;20119;-66
2023/09/15 01:43:39;;;;;;;18.83;17.00;;;;;;;14.12;86.38;101796.00;5068022;28;20024;-66
2023/09/15 01:46:07;;;;;;;19.27;17.15;;;;;;;14.01;86.69;101787.78;5053418;28;20384;-67
2023/09/15 01:48:34;;;;;;;18.15;16.45;;;;;;;14.03;86.85;101789.44;5070581;28;20016;-66
2023/09/15 01:51:00;;;;;;;18.98;17.15;;;;;;;13.96;87.08;101789.88;5065146;28;20033;-66
2023/09/15 01:53:25;;;;;;;18.42;16.55;;;;;;;13.97;87.03;101786.25;5053029;28;20017;-66
2023/09/15 01:55:53;;;;;;;17.30;15.63;;;;;;;13.99;86.33;101785.19;5063540;28;20024;-66
2023/09/15 01:58:19;;;;;;;19.20;16.75;;;;;;;13.98;86.92;101779.97;5067094;28;20479;-66
2023/09/15 02:00:45;;;;;;;19.20;17.23;;;;;;;13.93;86.65;101780.22;5064630;28;20070;-66
2023/09/15 02:03:12;;;;;;;18.30;16.35;;;;;;;13.97;87.09;101781.78;5065787;28;20040;-66
2023/09/15 02:05:37;;;;;;;22.67;17.63;;;;;;;13.91;87.14;101784.81;5049949;28;20028;-66
2023/09/15 02:08:03;;;;;;;17.48;15.75;;;;;;;13.83;87.21;101787.97;5063437;28;20372;-67
2023/09/15 02:10:31;;;;;;;22.02;18.17;;;;;;;13.73;87.54;101796.66;5060344;28;20024;-67
2023/09/15 02:12:56;;;;;;;18.20;16.17;;;;;;;13.78;86.66;101783.88;5059023;28;20039;-67
2023/09/15 02:15:22;;;;;;;19.27;17.48;;;;;;;13.78;87.26;101782.03;5053741;28;20029;-66
2023/09/15 02:17:50;;;;;;;18.98;17.15;;;;;;;13.73;87.71;101789.47;5057930;28;20033;-66
2023/09/15 02:20:18;;;;;;;18.23;16.40;;;;;;;13.75;87.55;101792.94;5049625;28;20032;-66
2023/09/15 02:22:44;;;;;;;19.70;17.75;;;;;;;13.74;87.46;101785.88;5054644;28;20040;-67
2023/09/15 02:25:10;;;;;;;18.75;16.98;;;;;;;13.63;87.63;101773.16;5056881;28;20020;-66
2023/09/15 02:27:38;;;;;;;18.02;16.33;;;;;;;13.66;87.85;101793.50;5059803;28;20573;-66
2023/09/15 02:30:09;;;;;;;18.23;16.45;;;;;;;13.66;87.49;101785.47;5037589;28;20094;-66
2023/09/15 02:32:37;;;;;;;17.23;15.52;;;;;;;13.58;87.65;101780.59;5056164;28;20052;-66
2023/09/15 02:35:02;;;;;;;17.45;15.75;;;;;;;13.55;87.87;101778.09;5054635;28;20024;-67
2023/09/15 02:37:28;;;;;;;17.55;15.85;;;;;;;13.52;87.83;101767.59;5051249;28;20537;-67
2023/09/15 02:39:53;;;;;;;18.27;16.50;;;;;;;13.53;87.39;101771.13;5049527;28;20136;-65
2023/09/15 02:42:19;;;;;;;17.58;15.77;;;;;;;13.51;87.77;101778.41;5052793;28;20055;-66
2023/09/15 02:44:45;;;;;;;18.88;16.88;;;;;;;13.50;87.49;101769.53;5028599;28;20383;-67
2023/09/15 02:47:10;;;;;;;19.83;17.83;;;;;;;13.46;87.80;101759.09;5050918;28;20547;-66
2023/09/15 02:49:36;;;;;;;19.20;17.38;;;;;;;13.42;87.82;101765.59;5029131;28;20534;-66
2023/09/15 02:52:01;;;;;;;18.10;16.30;;;;;;;13.40;87.90;101771.00;5059289;28;20121;-67
2023/09/15 02:54:27;;;;;;;18.30;16.40;;;;;;;13.29;87.92;101760.97;5034721;28;20053;-67
2023/09/15 02:56:53;;;;;;;17.70;15.98;;;;;;;13.39;87.64;101771.97;5025486;28;20031;-67
2023/09/15 02:59:18;;;;;;;17.20;15.45;;;;;;;13.27;87.72;101768.22;5064251;28;20391;-66
2023/09/15 03:01:44;;;;;;;17.80;15.98;;;;;;;13.33;87.91;101762.53;5039847;28;20458;-66
2023/09/15 03:04:11;;;;;;;20.00;16.55;;;;;;;13.31;87.72;101763.56;5034890;28;20442;-67
2023/09/15 03:06:39;;;;;;;18.15;16.35;;;;;;;13.23;88.08;101774.66;5043656;28;20112;-66
2023/09/15 03:09:06;;;;;;;18.35;15.95;;;;;;;13.17;88.14;101761.66;5047493;28;20028;-66
2023/09/15 03:11:31;;;;;;;16.83;15.18;;;;;;;13.25;87.94;101766.56;5058782;28;20029;-66
2023/09/15 03:13:56;;;;;;;17.63;15.90;;;;;;;13.13;87.45;101765.47;5052808;28;20428;-66
2023/09/15 03:16:23;;;;;;;18.30;16.40;;;;;;;13.14;87.86;101772.53;5046933;28;20029;-66
2023/09/15 03:18:49;;;;;;;18.15;16.27;;;;;;;13.06;88.46;101770.34;5016831;28;20424;-66
2023/09/15 03:21:17;;;;;;;18.27;16.33;;;;;;;13.09;88.13;101763.94;5034194;28;20045;-66
2023/09/15 03:23:43;;;;;;;18.45;16.65;;;;;;;13.05;88.52;101757.06;5033466;28;20029;-66
2023/09/15 03:26:08;;;;;;;17.02;15.32;;;;;;;13.05;88.20;101755.25;5055153;28;20025;-66
2023/09/15 03:28:35;;;;;;;17.95;16.15;;;;;;;12.98;88.57;101759.22;5052649;28;20472;-66
2023/09/15 03:31:05;;;;;;;18.10;16.17;;;;;;;13.04;88.45;101747.34;5024774;28;20025;-67
2023/09/15 03:33:31;;;;;;;17.98;16.13;;;;;;;13.04;88.39;101745.50;5067266;28;20480;-66
2023/09/15 03:35:57;;;;;;;17.35;15.75;;;;;;;12.98;88.39;101747.69;5050032;28;20044;-66
2023/09/15 03:38:25;;;;;;;15.18;9.05;;;;;;;13.21;87.41;101752.53;5047737;28;20028;-66
2023/09/15 03:40:50;;;;;;;16.77;15.18;;;;;;;13.01;87.86;101752.84;5033822;28;20028;-65
2023/09/15 03:43:16;;;;;;;16.05;14.45;;;;;;;12.96;88.16;101743.28;5063054;28;20029;-66
2023/09/15 03:45:47;;;;;;;16.27;14.57;;;;;;;12.90;88.17;101748.97;5055177;28;20029;-66
2023/09/15 03:48:13;;;;;;;17.92;16.27;;;;;;;12.97;88.03;101744.16;5037437;28;20113;-67
2023/09/15 03:50:38;;;;;;;16.95;15.25;;;;;;;12.89;88.07;101747.28;5043603;28;20459;-66
2023/09/15 03:53:04;;;;;;;16.73;15.00;;;;;;;12.94;88.17;101745.22;5050878;28;20028;-67
2023/09/15 03:55:32;;;;;;;17.40;15.55;;;;;;;12.85;88.31;101750.19;5023026;28;20025;-66
2023/09/15 03:57:57;;;;;;;18.65;16.92;;;;;;;12.87;88.37;101745.63;5040188;28;20028;-66
2023/09/15 04:00:22;;;;;;;17.10;15.50;;;;;;;12.83;87.98;101744.13;5032578;28;20033;-66
2023/09/15 04:02:48;;;;;;;17.48;15.82;;;;;;;12.81;88.35;101730.84;5035199;28;20499;-67
2023/09/15 04:05:15;;;;;;;17.15;15.55;;;;;;;12.84;88.22;101744.00;5053080;28;20029;-66
2023/09/15 04:07:43;;;;;;;16.05;14.45;;;;;;;12.70;88.45;101738.59;5072651;28;20385;-67
2023/09/15 04:10:09;;;;;;;15.48;13.98;;;;;;;12.72;88.37;101734.03;5057970;28;20056;-67
2023/09/15 04:12:34;;;;;;;16.27;14.77;;;;;;;12.72;88.35;101742.91;5039918;28;20484;-66
2023/09/15 04:15:00;;;;;;;17.00;15.30;;;;;;;12.66;88.90;101737.94;5054139;28;20433;-66
2023/09/15 04:17:25;;;;;;;16.92;15.40;;;;;;;12.65;88.53;101738.88;5042848;28;20466;-68
2023/09/15 04:19:51;;;;;;;16.40;14.80;;;;;;;12.66;88.70;101731.72;5065143;28;20124;-67
2023/09/15 04:22:16;;;;;;;16.77;15.27;;;;;;;12.64;88.92;101734.47;5045258;28;20124;-66
2023/09/15 04:24:42;;;;;;;16.85;15.32;;;;;;;12.56;89.05;101731.41;5065099;28;20024;-66
2023/09/15 04:27:07;;;;;;;15.70;14.20;;;;;;;12.53;88.97;101730.69;5060858;28;20028;-66
2023/09/15 04:29:32;;;;;;;16.48;14.88;;;;;;;12.41;89.22;101719.81;5060576;28;20474;-66
2023/09/15 04:32:00;;;;;;;17.70;15.85;;;;;;;12.52;89.39;101726.31;5061431;28;20055;-67
2023/09/15 04:34:26;;;;;;;17.85;16.17;;;;;;;12.48;89.02;101726.50;5062714;28;20036;-66
2023/09/15 04:36:51;;;;;;;14.02;9.10;;;;;;;12.73;88.39;101733.97;5048477;28;20433;-67
2023/09/15 04:39:17;;;;;;;19.02;15.55;;;;;;;12.61;88.34;101725.78;5064951;28;20067;-67
2023/09/15 04:41:42;;;;;;;17.40;15.80;;;;;;;12.56;88.81;101722.50;5036951;28;20521;-66
2023/09/15 04:44:09;;;;;;;17.45;15.70;;;;;;;12.44;88.58;101714.28;5062821;28;20071;-66
2023/09/15 04:46:34;;;;;;;17.02;15.32;;;;;;;12.45;89.09;101723.16;5059298;28;20036;-66
2023/09/15 04:48:59;;;;;;;17.05;15.40;;;;;;;12.47;88.99;101726.56;5060690;28;20029;-66
2023/09/15 04:51:29;;;;;;;17.58;15.77;;;;;;;12.33;89.20;101718.53;5060484;28;20052;-66
2023/09/15 04:53:55;;;;;;;18.88;16.95;;;;;;;12.39;89.31;101736.84;5067379;28;20467;-66
2023/09/15 04:56:23;;;;;;;17.23;15.60;;;;;;;12.36;88.78;101735.19;5047389;28;20082;-66
2023/09/15 04:58:49;;;;;;;18.05;16.33;;;;;;;12.39;89.29;101736.84;5069690;28;20016;-67
2023/09/15 05:01:16;;;;;;;18.17;16.13;;;;;;;12.33;89.45;101737.19;5064720;28;20060;-66
2023/09/15 05:03:43;;;;;;;17.70;15.98;;;;;;;12.17;89.63;101719.34;5066418;28;20012;-66
2023/09/15 05:06:08;;;;;;;16.92;15.27;;;;;;;12.32;89.53;101744.31;5066529;28;20099;-67
2023/09/15 05:08:33;;;;;;;14.80;10.25;;;;;;;12.50;88.73;101737.94;5069408;28;20059;-66
2023/09/15 05:10:59;;;;;;;19.73;16.70;;;;;;;12.24;89.29;101733.22;5063728;28;20116;-66
2023/09/15 05:13:25;;;;;;;20.45;15.23;;;;;;;12.33;89.19;101747.84;5025803;28;20086;-66
2023/09/15 05:15:50;;;;;;;17.85;15.93;;;;;;;12.20;89.28;101745.00;5062944;28;20020;-66
2023/09/15 05:18:16;;;;;;;18.90;15.73;;;;;;;12.24;89.53;101746.56;5059726;28;20021;-66
2023/09/15 05:20:41;;;;;;;17.23;15.60;;;;;;;12.24;89.65;101738.56;5056934;28;20016;-67
2023/09/15 05:23:06;;;;;;;15.85;14.25;;;;;;;12.24;89.84;101749.22;5041399;28;20012;-67
2023/09/15 05:25:33;;;;;;;16.88;15.20;;;;;;;12.19;90.11;101752.13;5047945;28;20052;-67
2023/09/15 05:28:00;;;;;;;18.55;15.70;;;;;;;12.21;89.93;101752.06;5065136;28;20054;-66
2023/09/15 05:30:30;;;;;;;20.20;16.55;;;;;;;12.09;90.73;101734.94;5063094;28;20053;-66
2023/09/15 05:32:55;;;;;;;19.05;16.70;;;;;;;12.25;90.54;101753.59;5063080;28;20602;-67
2023/09/15 05:35:21;;;;;;;21.35;16.52;;;;;;;12.23;90.56;101747.50;5042470;28;20048;-67
2023/09/15 05:37:46;;;;;;;18.17;16.38;;;;;;;12.14;91.25;101742.66;5059076;28;20025;-67
2023/09/15 05:40:12;;;;;;;17.65;16.05;;;;;;;12.14;91.39;101735.53;5061737;28;20107;-66
2023/09/15 05:42:37;;;;;;;18.20;16.38;;;;;;;12.23;91.60;101745.69;5054716;28;20041;-67
2023/09/15 05:45:06;;;;;;;18.58;16.65;;;;;;;12.25;91.90;101751.78;5057231;28;20049;-67
2023/09/15 05:47:33;;;;;;;18.13;16.33;;;;;;;12.17;92.07;101743.34;5054074;28;20375;-67
2023/09/15 05:50:04;;;;;;;16.30;14.80;;;;;;;12.19;92.76;101728.13;5051840;28;20021;-67
2023/09/15 05:52:29;;;;;;;17.95;16.20;;;;;;;12.24;93.37;101747.41;5035028;28;20368;-67
2023/09/15 05:54:55;;;;;;;17.27;15.68;;;;;;;12.35;93.47;101752.13;5063114;28;20016;-66
2023/09/15 05:57:20;;;;;;;17.02;15.50;;;;;;;12.30;93.70;101756.03;5065298;28;20020;-66
2023/09/15 05:59:46;;;;;;;17.88;15.85;;;;;;;12.31;94.28;101742.59;5061201;28;20112;-67
2023/09/15 06:02:13;;;;;;;19.33;17.52;;;;;;;12.42;94.50;101755.34;5067967;28;20102;-67
2023/09/15 06:04:42;;;;;;;18.65;16.75;;;;;;;12.25;94.56;101729.59;5057053;28;20021;-67
2023/09/15 06:07:07;;;;;;;19.17;17.40;;;;;;;12.52;94.86;101748.53;5063747;28;20070;-67
2023/09/15 06:09:32;;;;;;;17.52;15.73;;;;;;;12.60;94.92;101756.97;5058091;28;20021;-67
2023/09/15 06:11:58;;;;;;;18.20;16.15;;;;;;;12.50;95.38;101740.63;5031247;28;20467;-67
2023/09/15 06:14:23;;;;;;;16.55;14.75;;;;;;;12.68;94.99;101754.72;5061081;28;20021;-67
2023/09/15 09:37:58;;;;;;;8.55;5.97;;;;;;;19.74;65.43;101691.00;5044768;28;20483;-63
2023/09/15 09:40:24;;;;;;;6.50;5.35;;;;;;;19.74;65.95;101685.59;5046741;28;20914;-64
2023/09/15 09:42:50;;;;;;;8.65;6.53;;;;;;;19.60;65.47;101677.81;5067691;28;20070;-62
2023/09/15 09:45:16;;;;;;;8.32;6.15;;;;;;;19.79;66.45;101681.63;5047427;28;20029;-63
2023/09/15 09:47:45;;;;;;;12.05;7.40;;;;;;;19.64;65.11;101679.25;5046714;28;20079;-64
2023/09/15 09:50:13;;;;;;;;;;;;;;;19.86;67.94;101680.94;5058797;28;20037;-62
2023/09/15 09:52:40;;;;;;;7.47;5.93;;;;;;;19.71;67.03;101663.41;5053111;28;19913;-64
2023/09/15 09:55:09;;;;;;;8.70;5.55;;;;;;;19.82;64.43;101674.09;5059397;28;20395;-61
2023/09/15 09:57:39;;;;;;;10.35;5.63;;;;;;;19.86;66.89;101669.28;5066554;28;20032;-61
2023/09/15 10:00:09;;;;;;;7.80;5.25;;;;;;;19.99;66.62;101679.84;5033868;28;20475;-61
2023/09/15 10:02:36;;;;;;;9.25;6.07;;;;;;;19.91;64.11;101670.59;5059432;28;20024;-61
2023/09/15 10:05:02;;;;;;;11.43;5.93;;;;;;;20.08;64.50;101673.59;5056908;28;20017;-61
2023/09/15 10:07:27;;;;;;;10.70;5.70;;;;;;;20.08;66.55;101662.81;5060319;28;20029;-61
2023/09/15 10:09:54;;;;;;;9.38;5.72;;;;;;;20.05;65.26;101654.97;5068000;28;20029;-61
2023/09/15 10:12:20;;;;;;;9.85;5.57;;;;;;;20.24;64.71;101670.38;5051227;28;20033;-61
2023/09/15 10:14:46;;;;;;;6.25;5.38;;;;;;;20.18;63.34;101661.84;5050419;28;20025;-61
2023/09/15 10:17:12;;;;;;;6.45;5.85;;;;;;;20.30;63.61;101657.16;5054322;28;20112;-61
2023/09/15 10:19:39;;;;;;;7.32;5.78;;;;;;;20.15;63.09;101650.47;5068123;28;20020;-61
2023/09/15 10:22:05;;;;;;;7.57;5.55;;;;;;;20.20;64.00;101638.22;5047549;28;20480;-61
2023/09/15 10:24:32;;;;;;;6.85;5.65;;;;;;;20.25;66.45;101637.81;5053957;28;20025;-61
2023/09/15 10:26:57;;;;;;;8.38;5.65;;;;;;;20.34;64.50;101641.53;5054065;28;20079;-61
2023/09/15 10:29:30;;;;;;;8.48;5.13;;;;;;;20.56;65.06;101644.00;5057445;28;20040;-60
2023/09/15 10:31:58;;;;;;;7.28;6.05;;;;;;;20.64;61.96;101629.75;5033260;28;20040;-61
2023/09/15 10:34:25;;;;;;;7.43;5.78;;;;;;;20.38;62.07;101630.31;5039152;28;20040;-61
2023/09/15 10:36:52;;;;;;;8.05;5.82;;;;;;;20.68;61.89;101630.31;5051816;28;20073;-61
2023/09/15 10:39:18;;;;;;;8.35;6.03;;;;;;;20.78;61.47;101621.19;5047265;28;20035;-61
2023/09/15 10:41:44;;;;;;;7.75;5.93;;;;;;;20.71;62.10;101621.94;5053592;28;20021;-61
2023/09/15 10:44:10;;;;;;;7.88;5.47;;;;;;;20.84;62.31;101631.44;5059391;28;20033;-61
2023/09/15 10:46:36;;;;;;;6.47;5.68;;;;;;;20.95;60.95;101633.13;5056207;28;20766;-61
2023/09/15 10:49:19;;;;;;;8.27;5.70;;;;;;;20.96;62.10;101625.88;5038131;28;20024;-61
2023/09/15 10:51:58;;;;;;;6.35;4.47;;;;;;;21.20;60.77;101618.09;5071776;28;20029;-61
2023/09/15 10:54:26;;;;;;;8.00;5.63;;;;;;;21.13;60.64;101621.56;5051024;28;20029;-61
2023/09/15 10:56:52;;;;;;;6.85;5.63;;;;;;;21.20;61.97;101606.44;5051913;28;20022;-61
2023/09/15 10:59:23;;;;;;;6.45;5.15;;;;;;;21.29;62.09;101605.53;5039752;28;20032;-61
2023/09/15 11:01:48;;;;;;;5.75;5.13;;;;;;;21.40;60.25;101599.13;5037617;28;20040;-61
2023/09/15 11:04:20;;;;;;;7.28;4.78;;;;;;;21.48;58.80;101616.34;5047789;28;20025;-60
2023/09/15 11:06:48;;;;;;;9.27;4.90;;;;;;;21.46;58.40;101603.94;5035115;28;20495;-60
2023/09/15 11:09:14;;;;;;;8.70;5.03;;;;;;;21.57;59.10;101600.19;5050393;28;20025;-60
2023/09/15 11:11:47;;;;;;;7.20;4.53;;;;;;;21.76;60.12;101600.06;5051720;28;20031;-61
2023/09/15 11:14:17;;;;;;;10.52;5.28;;;;;;;21.83;59.63;101605.75;5033001;28;20021;-61
2023/09/15 11:16:50;;;;;;;8.95;5.20;;;;;;;21.74;58.83;101597.53;5061681;28;20060;-61
2023/09/15 11:19:17;;;;;;;5.38;4.88;;;;;;;21.87;57.71;101605.28;5015854;28;20026;-61
2023/09/15 11:21:45;;;;;;;8.40;4.40;;;;;;;21.97;56.88;101607.94;5049948;28;20116;-60
2023/09/15 11:24:10;;;;;;;7.82;5.18;;;;;;;21.89;57.07;101597.03;5053664;28;20529;-61
2023/09/15 11:26:47;;;;;;;7.22;4.78;;;;;;;22.03;57.79;101606.47;5063032;28;20021;-60
2023/09/15 11:29:14;;;;;;;7.15;4.60;;;;;;;22.12;54.45;101597.41;5032790;28;20061;-61
2023/09/15 11:31:40;;;;;;;10.35;4.70;;;;;;;22.01;56.12;101593.09;5042019;28;20037;-61
2023/09/15 11:34:06;;;;;;;6.30;4.70;;;;;;;22.08;55.37;101594.16;5051276;28;20033;-61
2023/09/15 11:36:41;;;;;;;5.93;4.13;;;;;;;22.23;55.23;101592.66;5035922;28;20068;-60
2023/09/15 11:39:11;;;;;;;8.15;5.13;;;;;;;22.22;56.40;101592.81;5057275;28;20064;-61
2023/09/15 11:41:37;;;;;;;9.38;5.00;;;;;;;22.22;54.67;101598.25;5050271;28;20043;-61
2023/09/15 11:44:06;;;;;;;5.82;4.43;;;;;;;22.27;55.25;101587.78;5023402;28;20108;-61
2023/09/15 11:46:34;;;;;;;8.20;4.28;;;;;;;22.27;54.88;101593.22;5046476;28;20021;-61
2023/09/15 11:49:01;;;;;;;7.65;4.38;;;;;;;22.62;54.98;101583.34;5056002;28;20029;-61
2023/09/15 11:51:30;;;;;;;6.65;4.55;;;;;;;22.59;55.19;101583.63;5042877;28;20024;-61
2023/09/15 11:53:59;;;;;;;5.32;4.13;;;;;;;22.72;53.93;101586.81;5066230;28;20074;-60
2023/09/15 11:56:26;;;;;;;7.93;3.35;;;;;;;22.70;52.39;101574.41;5069499;28;20032;-61
2023/09/15 11:58:54;;;;;;;5.05;3.88;;;;;;;22.80;53.07;101578.75;5079128;28;20388;-60
2023/09/15 12:01:21;;;;;;;5.53;3.38;;;;;;;22.83;51.77;101570.28;5050598;28;20021;-61
2023/09/15 12:03:48;;;;;;;6.47;3.70;;;;;;;22.74;49.98;101573.94;5068386;28;20021;-60
2023/09/15 12:06:17;;;;;;;5.43;3.15;;;;;;;22.77;51.57;101560.06;5060313;28;20016;-60
2023/09/15 12:08:48;;;;;;;6.10;3.70;;;;;;;22.81;52.22;101568.72;5071182;28;20084;-61
2023/09/15 12:11:14;;;;;;;7.43;3.80;;;;;;;22.84;51.27;101566.53;5070788;28;20387;-61
2023/09/15 12:13:42;;;;;;;7.90;4.05;;;;;;;22.94;50.42;101543.88;5064431;28;20047;-61
2023/09/15 12:16:28;;;;;;;4.03;3.08;;;;;;;23.05;52.51;101560.78;5044714;28;20449;-60
2023/09/15 12:18:54;;;;;;;3.90;3.20;;;;;;;22.96;49.97;101560.88;5068404;28;20031;-61
2023/09/15 12:21:27;;;;;;;4.05;3.00;;;;;;;22.92;49.72;101554.91;5069085;28;20116;-60
2023/09/15 12:23:56;;;;;;;6.03;3.20;;;;;;;22.68;52.21;101558.31;5037109;28;20029;-61
2023/09/15 12:26:25;;;;;;;14.05;3.55;;;;;;;22.51;52.58;101546.50;5063646;28;20033;-61
2023/09/15 12:28:56;;;;;;;;;;;;;;;22.75;53.29;101548.53;5062421;28;20544;-63
2023/09/15 12:31:21;;;;;;;5.53;3.35;;;;;;;22.67;50.98;101549.31;5065269;28;19955;-64
2023/09/15 12:33:52;;;;;;;7.75;3.30;;;;;;;22.77;51.39;101549.22;5063596;28;20448;-63
2023/09/15 12:36:19;;;;;;;4.70;2.90;;;;;;;22.92;49.66;101540.50;5050535;28;20059;-63
2023/09/15 12:38:44;;;;;;;5.75;2.75;;;;;;;22.91;51.81;101542.34;5054113;28;20067;-63
2023/09/15 12:41:09;;;;;;;4.35;3.10;;;;;;;22.74;51.02;101545.97;5045643;28;20056;-63
2023/09/15 12:43:37;;;;;;;4.70;2.95;;;;;;;22.82;50.52;101530.59;5062888;28;20083;-63
2023/09/15 12:46:03;;;;;;;6.00;3.38;;;;;;;22.99;51.36;101536.16;5049497;28;20059;-63
2023/09/15 12:48:29;;;;;;;4.28;3.13;;;;;;;23.26;50.45;101533.22;5031918;28;20029;-63
2023/09/15 12:50:55;;;;;;;5.53;3.08;;;;;;;23.26;49.86;101524.22;5046901;28;20423;-63
2023/09/15 12:53:20;;;;;;;3.78;2.70;;;;;;;23.34;51.83;101524.28;5031947;28;20026;-63
2023/09/15 12:55:48;;;;;;;4.22;2.60;;;;;;;23.43;51.14;101522.44;5033541;28;20032;-63
2023/09/15 12:58:18;;;;;;;2.95;2.63;;;;;;;23.32;50.59;101523.56;5051720;28;20515;-63
2023/09/15 13:00:43;;;;;;;4.65;2.63;;;;;;;23.23;51.71;101521.84;5056620;28;20040;-63
2023/09/15 13:03:09;;;;;;;3.97;2.75;;;;;;;23.04;52.58;101517.53;5049784;28;20035;-63
2023/09/15 13:05:34;;;;;;;7.13;3.20;;;;;;;23.01;50.51;101510.56;5049252;28;20020;-63
2023/09/15 13:07:59;;;;;;;10.73;3.17;;;;;;;23.09;50.42;101507.88;5047805;28;20031;-63
2023/09/15 13:10:25;;;;;;;4.28;2.85;;;;;;;23.18;49.74;101502.47;5060621;28;20079;-63
2023/09/15 13:12:50;;;;;;;4.18;2.72;;;;;;;23.24;53.77;101493.72;5045218;28;20473;-63
2023/09/15 13:15:21;;;;;;;6.20;2.67;;;;;;;23.47;51.67;101497.53;5044008;28;20062;-63
2023/09/15 13:17:47;;;;;;;4.53;3.13;;;;;;;23.57;48.91;101495.50;5048801;28;20056;-63
2023/09/15 13:20:15;;;;;;;5.38;2.95;;;;;;;23.58;48.69;101499.06;5040153;28;20112;-63
2023/09/15 13:22:40;;;;;;;4.20;3.20;;;;;;;23.59;50.61;101498.06;5041370;28;20020;-63
2023/09/15 13:25:09;;;;;;;3.63;2.63;;;;;;;23.72;48.20;101495.72;5054463;28;20024;-63
2023/09/15 13:27:36;;;;;;;;;;;;;;;25.61;50.95;101479.88;5060200;28;20059;-64
2023/09/15 13:30:05;;;;;;;6.20;2.78;;;;;;;28.86;37.69;101482.41;5072125;28;20359;-63
2023/09/15 13:32:30;;;;;;;4.05;2.60;;;;;;;30.93;33.52;101478.97;5056353;28;20480;-64
2023/09/15 13:34:56;;;;;;;4.97;2.47;;;;;;;32.26;31.74;101469.97;5036986;28;20056;-64
2023/09/15 13:37:22;;;;;;;6.18;2.20;;;;;;;33.16;30.10;101473.09;5049994;28;20439;-64
2023/09/15 13:39:48;;;;;;;5.97;2.42;;;;;;;33.83;28.87;101472.19;5035673;28;20491;-64
2023/09/15 13:42:29;;;;;;;4.07;2.10;;;;;;;33.66;28.27;101466.50;5035041;28;20388;-64
2023/09/15 13:44:54;;;;;;;5.00;2.22;;;;;;;31.74;29.36;101463.78;5050992;28;20025;-64
2023/09/15 13:47:19;;;;;;;3.05;2.22;;;;;;;30.84;32.78;101464.63;5035256;28;20028;-64
2023/09/15 13:49:45;;;;;;;5.47;2.20;;;;;;;30.71;33.68;101454.50;5035433;28;20063;-64
2023/09/15 13:52:10;;;;;;;3.97;2.20;;;;;;;31.32;31.86;101461.47;5017099;28;20033;-64
2023/09/15 13:54:36;;;;;;;4.30;2.70;;;;;;;32.10;29.33;101463.13;5017436;28;20021;-64
2023/09/15 13:57:02;;;;;;;5.50;2.38;;;;;;;32.97;29.37;101457.59;5034875;28;20124;-64
2023/09/15 13:59:27;;;;;;;2.78;2.40;;;;;;;34.32;26.97;101459.03;5035162;28;20022;-64
2023/09/15 14:01:53;;;;;;;3.13;2.35;;;;;;;34.46;27.36;101454.13;5035075;28;20483;-64
2023/09/15 14:04:20;;;;;;;3.40;2.40;;;;;;;34.52;27.37;101448.47;5035208;28;20124;-64
2023/09/15 14:06:49;;;;;;;3.40;2.47;;;;;;;34.79;27.93;101446.06;5034440;28;20040;-64
2023/09/15 14:09:17;;;;;;;6.43;2.70;;;;;;;33.94;27.21;101446.50;5035083;28;20049;-64
2023/09/15 14:11:42;;;;;;;;;;;;;;;35.72;29.61;101454.28;5017196;28;20028;-64
2023/09/15 14:14:11;;;;;;;8.07;2.42;;;;;;;33.70;28.50;101446.44;5038940;28;19913;-64
2023/09/15 14:16:38;;;;;;;4.22;2.20;;;;;;;33.13;28.11;101443.22;5054776;28;20033;-64
2023/09/15 14:19:03;;;;;;;4.22;2.30;;;;;;;31.76;30.35;101440.50;5070439;28;20025;-64
2023/09/15 14:21:31;;;;;;;4.22;2.50;;;;;;;30.86;31.84;101443.28;5069545;28;20028;-64
2023/09/15 14:23:56;;;;;;;4.85;2.50;;;;;;;29.97;34.00;101443.78;5054674;28;20032;-64
2023/09/15 14:26:22;;;;;;;5.15;2.58;;;;;;;28.84;34.22;101444.25;5054312;28;20025;-63
2023/09/15 14:28:47;;;;;;;4.25;2.63;;;;;;;28.00;35.68;101436.06;5069808;28;20484;-64
2023/09/15 14:31:13;;;;;;;2.47;2.22;;;;;;;27.53;36.94;101440.22;5054431;28;20067;-64
2023/09/15 14:33:38;;;;;;;4.18;2.30;;;;;;;27.07;38.25;101429.59;5054489;28;20021;-64
2023/09/15 14:36:06;;;;;;;4.13;2.30;;;;;;;26.88;39.60;101434.56;5053577;28;20048;-63
2023/09/15 14:38:31;;;;;;;3.57;2.30;;;;;;;26.38;39.39;101411.59;5054093;28;20033;-64